Time;durP1;ratioP1;P1;durP2;ratioP2;P2;SDS_P1;SDS_P2;PMS_P1;PMS_P2;Temp;Humidity;BMP_temperature;BMP_pressure;BME280_temperature;BME280_humidity;BME280_pressure;Samples;Min_cycle;Max_cycle;Signal;HPM_P1;HPM_P2
2022/09/10 00:01:19;;;;;;;;;;;;;;;14.90;89.99;100804.50;5111212;28;20416;-56
2022/09/10 00:03:44;;;;;;;;;;;;;;;14.89;89.99;100806.34;5112700;28;19965;-56
2022/09/10 00:06:10;;;;;;;;;;;;;;;14.92;90.04;100798.06;5112292;27;19919;-56
2022/09/10 00:08:37;;;;;;;;;;;;;;;14.94;90.00;100803.25;5111005;28;19965;-56
2022/09/10 00:11:04;;;;;;;;;;;;;;;14.94;89.91;100797.91;5112562;28;20290;-56
2022/09/10 00:13:29;;;;;;;;;;;;;;;14.94;89.92;100797.91;5118086;27;19931;-56
2022/09/10 00:16:00;;;;;;;;;;;;;;;14.93;89.60;100805.09;5123253;27;20303;-56
2022/09/10 00:18:25;;;;;;;;;;;;;;;14.93;90.04;100797.06;5110834;28;19912;-56
2022/09/10 00:20:54;;;;;;;;;;;;;;;14.92;90.56;100803.41;5111438;27;19922;-56
2022/09/10 00:23:22;;;;;;;;;;;;;;;14.98;88.89;100792.19;5111075;28;19911;-56
2022/09/10 00:25:48;;;;;;;;;;;;;;;14.93;89.87;100796.22;5111913;27;19923;-56
2022/09/10 00:28:15;;;;;;;;;;;;;;;14.90;89.93;100799.16;5111057;28;19912;-57
2022/09/10 00:30:45;;;;;;;;;;;;;;;14.88;90.26;100793.94;5111478;28;19907;-56
2022/09/10 00:33:11;;;;;;;;;;;;;;;14.91;89.32;100796.38;5112268;27;20333;-56
2022/09/10 00:35:36;;;;;;;;;;;;;;;14.87;90.07;100797.56;5112646;27;19907;-56
2022/09/10 00:38:02;;;;;;;;;;;;;;;14.86;90.10;100798.56;5112127;27;19926;-56
2022/09/10 00:40:28;;;;;;;;;;;;;;;14.86;90.15;100798.56;5111010;28;19907;-56
2022/09/10 00:42:54;;;;;;;;;;;;;;;14.87;90.71;100794.91;5112006;28;19914;-56
2022/09/10 00:45:24;;;;;;;;;;;;;;;14.86;90.75;100795.03;5109416;28;19911;-56
2022/09/10 00:47:50;;;;;;;;;;;;;;;14.86;90.60;100795.88;5111243;28;19908;-56
2022/09/10 00:50:21;;;;;;;;;;;;;;;14.84;90.16;100795.16;5111253;27;19907;-56
2022/09/10 00:52:47;;;;;;;;;;;;;;;14.84;89.61;100788.94;5112451;27;19915;-56
2022/09/10 00:55:13;;;;;;;;;;;;;;;14.84;90.38;100791.63;5110837;28;19994;-56
2022/09/10 00:57:39;;;;;;;;;;;;;;;14.83;90.01;100795.28;5110718;28;19911;-56
2022/09/10 01:00:06;;;;;;;;;;;;;;;14.86;90.46;100795.88;5121176;27;19922;-56
2022/09/10 01:02:32;;;;;;;;;;;;;;;14.82;91.14;100801.59;5131104;27;19908;-56
2022/09/10 01:04:57;;;;;;;;;;;;;;;14.82;90.83;100799.75;5128935;27;19968;-56
2022/09/10 01:07:26;;;;;;;;;;;;;;;14.88;90.09;100811.81;5132218;27;19919;-56
2022/09/10 01:09:51;;;;;;;;;;;;;;;14.84;92.26;100813.88;5128937;27;20373;-56
2022/09/10 01:12:32;;;;;;;;;;;;;;;14.85;91.58;100812.06;5128683;27;19908;-56
2022/09/10 01:15:17;;;;;;;;;;;;;;;14.88;90.69;100809.13;5125838;27;20299;-56
2022/09/10 01:17:45;;;;;;;;;;;;;;;14.90;90.76;100809.88;5091095;28;19947;-56
2022/09/10 01:20:22;;;;;;;;;;;;;;;14.93;91.05;100807.78;5108246;28;20393;-56
2022/09/10 01:23:06;;;;;;;;;;;;;;;14.94;91.27;100808.63;5110737;28;20362;-56
2022/09/10 01:25:50;;;;;;;;;;;;;;;14.95;90.73;100810.34;5110801;28;19907;-56
2022/09/10 01:28:24;;;;;;;;;;;;;;;14.97;90.99;100813.72;5129558;27;19915;-56
2022/09/10 01:30:56;;;;;;;;;;;;;;;15.02;89.51;100808.00;5128628;27;19907;-56
2022/09/10 01:33:47;;;;;;;;;;;;;;;14.99;90.13;100801.06;5134909;27;20370;-56
2022/09/10 01:36:15;;;;;;;;;;;;;;;14.97;90.74;100806.56;5129570;27;19958;-56
2022/09/10 01:38:41;;;;;;;;;;;;;;;14.98;90.65;100808.25;5093426;28;19939;-56
2022/09/10 01:41:06;;;;;;;;;;;;;;;14.99;90.94;100801.91;5094181;28;19908;-56
2022/09/10 01:43:32;;;;;;;;;;;;;;;15.01;90.27;100804.47;5096182;27;20372;-56
2022/09/10 01:46:13;;;;;;;;;;;;;;;14.98;91.57;100802.91;5117778;27;19914;-56
2022/09/10 01:48:38;;;;;;;;;;;;;;;15.04;91.92;100808.75;5135423;27;20011;-56
2022/09/10 01:51:28;;;;;;;;;;;;;;;15.06;91.61;100804.09;5134726;27;20414;-56
2022/09/10 01:54:10;;;;;;;;;;;;;;;15.06;92.54;100809.44;5120521;27;19972;-56
2022/09/10 01:56:47;;;;;;;;;;;;;;;15.14;90.51;100804.31;5132818;27;20362;-56
2022/09/10 01:59:21;;;;;;;;;;;;;;;15.07;91.47;100805.81;5134111;27;19924;-56
2022/09/10 02:01:53;;;;;;;;;;;;;;;15.11;91.59;100805.41;5134094;27;19916;-56
2022/09/10 02:04:20;;;;;;;;;;;;;;;15.07;92.17;100795.09;5133735;27;19907;-56
2022/09/10 02:06:47;;;;;;;;;;;;;;;15.09;90.97;100804.69;5121192;27;19965;-56
2022/09/10 02:09:13;;;;;;;;;;;;;;;15.11;91.47;100800.03;5113735;28;19950;-56
2022/09/10 02:11:46;;;;;;;;;;;;;;;15.13;92.25;100803.47;5114942;28;19907;-56
2022/09/10 02:14:13;;;;;;;;;;;;;;;15.16;94.16;100799.69;5113415;28;20386;-56
2022/09/10 02:16:39;;;;;;;;;;;;;;;15.12;92.87;100796.41;5115338;27;19911;-56
2022/09/10 02:19:05;;;;;;;;;;;;;;;15.13;94.45;100799.94;5122319;27;19948;-56
2022/09/10 02:21:31;;;;;;;;;;;;;;;15.12;93.88;100790.22;5134652;27;19911;-56
2022/09/10 02:24:04;;;;;;;;;;;;;;;15.10;93.91;100789.47;5133935;27;20285;-56
2022/09/10 02:26:31;;;;;;;;;;;;;;;15.08;94.19;100786.91;5121157;27;19969;-56
2022/09/10 02:28:57;;;;;;;;;;;;;;;15.09;94.16;100794.00;5111380;28;19912;-56
2022/09/10 02:31:22;;;;;;;;;;;;;;;15.10;94.20;100790.31;5113624;28;19911;-56
2022/09/10 02:33:47;;;;;;;;;;;;;;;15.10;94.88;100790.31;5112482;28;19908;-56
2022/09/10 02:36:13;;;;;;;;;;;;;;;15.10;94.27;100789.47;5116711;27;20016;-56
2022/09/10 02:38:38;;;;;;;;;;;;;;;15.08;94.95;100781.56;5113734;28;19919;-56
2022/09/10 02:41:03;;;;;;;;;;;;;;;15.11;93.76;100788.50;5115290;28;20381;-56
2022/09/10 02:43:28;;;;;;;;;;;;;;;15.12;94.31;100782.16;5113913;28;19908;-56
2022/09/10 02:45:57;;;;;;;;;;;;;;;15.08;93.74;100786.06;5121899;27;20404;-56
2022/09/10 02:48:24;;;;;;;;;;;;;;;15.08;94.56;100788.75;5133322;27;20009;-56
2022/09/10 02:50:50;;;;;;;;;;;;;;;15.07;93.67;100779.84;5115300;27;19947;-56
2022/09/10 02:53:15;;;;;;;;;;;;;;;15.07;94.19;100782.53;5128589;27;19946;-56
2022/09/10 02:55:43;;;;;;;;;;;;;;;15.08;95.07;100778.88;5128482;27;19969;-56
2022/09/10 02:58:08;;;;;;;;;;;;;;;15.16;92.92;100787.13;5112963;28;19912;-56
2022/09/10 03:00:33;;;;;;;;;;;;;;;15.12;94.29;100784.84;5112307;27;19943;-57
2022/09/10 03:02:58;;;;;;;;;;;;;;;15.11;94.39;100783.97;5114598;28;19908;-56
2022/09/10 03:05:23;;;;;;;;;;;;;;;15.12;93.34;100785.69;5114552;28;19942;-56
2022/09/10 03:07:49;;;;;;;;;;;;;;;15.12;93.36;100780.34;5115842;27;20418;-56
2022/09/10 03:10:14;;;;;;;;;;;;;;;15.19;93.36;100783.34;5131502;27;20421;-56
2022/09/10 03:12:40;;;;;;;;;;;;;;;15.12;94.34;100795.56;5132952;27;19911;-56
2022/09/10 03:15:05;;;;;;;;;;;;;;;15.14;93.49;100790.91;5129423;27;19914;-56
2022/09/10 03:17:31;;;;;;;;;;;;;;;15.12;95.01;100787.53;5112986;28;19923;-56
2022/09/10 03:19:57;;;;;;;;;;;;;;;15.11;95.33;100788.50;5112606;28;19911;-56
2022/09/10 03:22:22;;;;;;;;;;;;;;;15.10;95.23;100784.97;5111146;28;19912;-56
2022/09/10 03:24:47;;;;;;;;;;;;;;;15.12;94.93;100787.53;5111124;28;19907;-56
2022/09/10 03:27:15;;;;;;;;;;;;;;;15.14;95.67;100789.06;5112662;27;20482;-56
2022/09/10 03:29:40;;;;;;;;;;;;;;;15.09;94.57;100780.59;5112957;28;19923;-56
2022/09/10 03:32:06;;;;;;;;;;;;;;;15.13;95.85;100783.88;5112271;28;19911;-56
2022/09/10 03:34:31;;;;;;;;;;;;;;;15.09;94.91;100777.91;5111127;28;19984;-56
2022/09/10 03:36:56;;;;;;;;;;;;;;;15.13;94.76;100781.19;5132470;27;19918;-56
2022/09/10 03:39:21;;;;;;;;;;;;;;;15.11;95.80;100777.78;5111070;27;20023;-56
2022/09/10 03:41:47;;;;;;;;;;;;;;;15.12;95.29;100780.34;5112020;28;19908;-56
2022/09/10 03:44:12;;;;;;;;;;;;;;;15.14;94.63;100781.03;5112344;27;19907;-56
2022/09/10 03:46:37;;;;;;;;;;;;;;;15.12;95.01;100768.78;5112866;28;19954;-56
2022/09/10 03:49:06;;;;;;;;;;;;;;;15.13;95.81;100774.00;5115773;27;19911;-57
2022/09/10 03:51:32;;;;;;;;;;;;;;;15.16;95.40;100784.44;5114075;27;19922;-56
2022/09/10 03:53:58;;;;;;;;;;;;;;;15.19;95.30;100765.44;5110752;28;20438;-56
2022/09/10 03:56:24;;;;;;;;;;;;;;;15.15;95.92;100769.38;5110394;28;20002;-56
2022/09/10 03:58:50;;;;;;;;;;;;;;;15.13;96.74;100775.81;5145364;27;19919;-56
2022/09/10 04:01:16;;;;;;;;;;;;;;;15.12;96.16;100774.97;5112035;27;19912;-56
2022/09/10 04:03:41;;;;;;;;;;;;;;;15.13;96.31;100765.09;5124501;27;19911;-56
2022/09/10 04:06:10;;;;;;;;;;;;;;;15.12;96.58;100777.66;5119923;27;19942;-56
2022/09/10 04:08:36;;;;;;;;;;;;;;;15.16;96.74;100775.56;5141511;27;19912;-56
2022/09/10 04:11:02;;;;;;;;;;;;;;;15.12;97.43;100764.25;5110359;28;19954;-56
2022/09/10 04:13:27;;;;;;;;;;;;;;;15.12;96.73;100768.78;5111035;27;20301;-56
2022/09/10 04:15:54;;;;;;;;;;;;;;;15.12;97.32;100758.06;5111289;28;20385;-56
2022/09/10 04:18:19;;;;;;;;;;;;;;;15.10;96.09;100766.22;5112519;28;20392;-56
2022/09/10 04:20:46;;;;;;;;;;;;;;;15.11;97.61;100764.38;5110999;27;19915;-56
2022/09/10 04:23:12;;;;;;;;;;;;;;;15.10;97.24;100765.38;5112058;27;19908;-56
2022/09/10 04:25:37;;;;;;;;;;;;;;;15.08;97.37;100767.31;5097949;27;19973;-56
2022/09/10 04:28:02;;;;;;;;;;;;;;;15.12;96.64;100766.09;5096509;28;19908;-56
2022/09/10 04:30:27;;;;;;;;;;;;;;;15.23;95.54;100755.31;5091821;28;19915;-56
2022/09/10 04:32:53;;;;;;;;;;;;;;;15.12;96.88;100763.41;5104601;27;20347;-56
2022/09/10 04:35:19;;;;;;;;;;;;;;;15.13;97.21;100760.59;5136260;27;19911;-56
2022/09/10 04:37:46;;;;;;;;;;;;;;;15.13;97.77;100768.63;5104137;27;19912;-56
2022/09/10 04:40:12;;;;;;;;;;;;;;;15.18;95.92;100761.06;5088969;28;19912;-56
2022/09/10 04:42:37;;;;;;;;;;;;;;;15.14;98.05;100761.44;5091525;28;19935;-56
2022/09/10 04:45:03;;;;;;;;;;;;;;;15.14;98.67;100764.97;5092006;28;19908;-56
2022/09/10 04:47:28;;;;;;;;;;;;;;;15.13;98.26;100765.94;5107038;27;19916;-56
2022/09/10 04:49:54;;;;;;;;;;;;;;;15.11;98.89;100765.22;5096765;27;19912;-56
2022/09/10 04:52:21;;;;;;;;;;;;;;;15.13;98.88;100765.09;5090584;28;20294;-56
2022/09/10 04:54:47;;;;;;;;;;;;;;;15.16;96.76;100764.84;5090085;28;19915;-55
2022/09/10 04:57:12;;;;;;;;;;;;;;;15.10;97.08;100771.56;5116513;27;19915;-56
2022/09/10 04:59:37;;;;;;;;;;;;;;;15.11;98.73;100775.94;5131258;27;19911;-56
2022/09/10 05:02:05;;;;;;;;;;;;;;;15.07;98.45;100774.50;5129935;27;19950;-56
2022/09/10 05:04:30;;;;;;;;;;;;;;;15.16;97.38;100775.56;5099543;27;20264;-56
2022/09/10 05:06:56;;;;;;;;;;;;;;;15.09;98.14;100772.56;5100337;27;19937;-57
2022/09/10 05:09:22;;;;;;;;;;;;;;;15.11;98.09;100777.78;5112220;28;20006;-56
2022/09/10 05:11:49;;;;;;;;;;;;;;;15.12;98.25;100776.81;5109284;28;19919;-57
2022/09/10 05:14:15;;;;;;;;;;;;;;;15.12;97.66;100764.25;5110257;28;19907;-56
2022/09/10 05:16:40;;;;;;;;;;;;;;;15.13;97.59;100773.16;5119840;27;19940;-56
2022/09/10 05:19:05;;;;;;;;;;;;;;;15.12;98.73;100763.41;5112679;28;19937;-56
2022/09/10 05:21:31;;;;;;;;;;;;;;;15.12;99.30;100766.94;5110595;28;19908;-56
2022/09/10 05:23:57;;;;;;;;;;;;;;;15.12;99.05;100772.31;5110996;28;19999;-56
2022/09/10 05:26:23;;;;;;;;;;;;;;;15.16;98.54;100778.25;5111918;28;19923;-56
2022/09/10 05:28:48;;;;;;;;;;;;;;;15.17;99.53;100774.56;5110086;28;19912;-56
2022/09/10 05:31:13;;;;;;;;;;;;;;;15.21;97.04;100773.38;5109313;28;19907;-56
2022/09/10 05:33:39;;;;;;;;;;;;;;;15.20;97.40;100777.00;5088795;28;19914;-57
2022/09/10 05:36:07;;;;;;;;;;;;;;;15.16;98.25;100768.38;5104525;27;19912;-56
2022/09/10 05:38:33;;;;;;;;;;;;;;;15.17;97.49;100772.75;5099535;27;19923;-56
2022/09/10 05:41:01;;;;;;;;;;;;;;;15.20;98.10;100774.31;5088951;28;20281;-56
2022/09/10 05:43:26;;;;;;;;;;;;;;;15.19;99.15;100778.84;5091859;28;20260;-56
2022/09/10 05:45:52;;;;;;;;;;;;;;;15.21;98.76;100778.72;5094466;28;19926;-56
2022/09/10 05:48:17;;;;;;;;;;;;;;;15.25;99.19;100772.13;5131073;27;20560;-56
2022/09/10 05:50:44;;;;;;;;;;;;;;;15.27;98.42;100777.34;5130293;27;19908;-56
2022/09/10 05:53:09;;;;;;;;;;;;;;;15.32;99.02;100769.75;5130234;27;19998;-56
2022/09/10 05:55:35;;;;;;;;;;;;;;;15.29;98.41;100780.75;5125011;27;20002;-56
2022/09/10 05:58:01;;;;;;;;;;;;;;;15.31;98.94;100781.47;5104233;28;20444;-56
2022/09/10 06:00:26;;;;;;;;;;;;;;;15.32;99.58;100783.16;5122099;27;20797;-56
2022/09/10 06:02:52;;;;;;;;;;;;;;;15.30;99.10;100777.94;5090786;28;19922;-57
2022/09/10 06:05:21;;;;;;;;;;;;;;;15.29;99.36;100783.41;5089827;28;19939;-56
2022/09/10 06:07:46;;;;;;;;;;;;;;;15.30;98.99;100785.13;5114261;28;19911;-56
2022/09/10 06:10:13;;;;;;;;;;;;;;;15.29;99.80;100778.06;5130943;27;19960;-57
2022/09/10 06:12:40;;;;;;;;;;;;;;;15.29;99.71;100786.09;5110057;27;19915;-57
2022/09/10 06:15:06;;;;;;;;;;;;;;;15.29;99.38;100783.41;5096359;28;19911;-56
2022/09/10 06:17:31;;;;;;;;;;;;;;;15.36;98.81;100780.09;5123657;27;19939;-56
2022/09/10 06:19:57;;;;;;;;;;;;;;;15.36;98.47;100789.97;5113413;28;19919;-56
2022/09/10 06:22:22;;;;;;;;;;;;;;;15.28;100.00;100787.09;5112751;28;19911;-56
2022/09/10 06:24:48;;;;;;;;;;;;;;;15.25;100.00;100782.84;5113832;28;19908;-57
2022/09/10 06:27:13;;;;;;;;;;;;;;;15.33;99.47;100792.91;5114879;27;19997;-56
2022/09/10 06:29:39;;;;;;;;;;;;;;;15.27;99.05;100791.59;5108284;28;19938;-56
2022/09/10 06:32:04;;;;;;;;;;;;;;;15.30;99.12;100790.50;5091761;28;20255;-57
2022/09/10 06:34:29;;;;;;;;;;;;;;;15.30;100.00;100799.38;5093982;28;20002;-57
2022/09/10 06:36:57;;;;;;;;;;;;;;;15.33;99.87;100791.09;5133641;27;19912;-56
2022/09/10 06:39:22;;;;;;;;;;;;;;;15.34;100.00;100799.97;5116155;27;19976;-56
2022/09/10 06:41:47;;;;;;;;;;;;;;;15.30;99.57;100785.13;5113490;28;20373;-56
2022/09/10 06:44:13;;;;;;;;;;;;;;;15.33;99.12;100793.75;5099834;28;20023;-57
2022/09/10 06:46:38;;;;;;;;;;;;;;;15.32;100.00;100797.41;5092731;28;19954;-56
2022/09/10 06:49:04;;;;;;;;;;;;;;;15.33;100.00;100800.97;5103665;27;20367;-56
2022/09/10 06:51:29;;;;;;;;;;;;;;;15.36;99.41;100798.03;5113640;27;19912;-56
2022/09/10 06:53:55;;;;;;;;;;;;;;;15.35;99.56;100799.84;5113766;28;19915;-56
2022/09/10 06:56:21;;;;;;;;;;;;;;;15.35;100.00;100799.84;5130116;27;19915;-56
2022/09/10 06:58:46;;;;;;;;;;;;;;;15.46;98.96;100798.94;5120989;27;19920;-56
2022/09/10 07:01:19;;;;;;;;;;;;;;;15.37;100.00;100803.22;5114367;27;19918;-56
2022/09/10 07:03:45;;;;;;;;;;;;;;;15.38;100.00;100799.59;5111573;27;19937;-56
2022/09/10 07:06:14;;;;;;;;;;;;;;;15.40;100.00;100805.66;5111509;27;19998;-56
2022/09/10 07:08:40;;;;;;;;;;;;;;;15.49;99.17;100793.31;5113021;27;19912;-57
2022/09/10 07:11:06;;;;;;;;;;;;;;;15.57;98.62;100798.03;5107667;27;19916;-56
2022/09/10 07:13:32;;;;;;;;;;;;;;;15.49;99.79;100806.72;5110514;28;20294;-56
2022/09/10 07:15:58;;;;;;;;;;;;;;;15.55;99.29;100802.66;5111386;28;19919;-56
2022/09/10 07:18:24;;;;;;;;;;;;;;;15.50;99.70;100807.56;5113540;27;19915;-56
2022/09/10 07:20:50;;;;;;;;;;;;;;;15.52;99.55;100813.66;5112585;27;19915;-56
2022/09/10 07:23:16;;;;;;;;;;;;;;;15.55;98.64;100818.75;5114761;27;19911;-56
2022/09/10 07:25:41;;;;;;;;;;;;;;;15.47;99.62;100823.91;5118026;27;19922;-56
2022/09/10 07:28:12;;;;;;;;;;;;;;;15.66;98.14;100824.06;5134474;27;19911;-56
2022/09/10 07:30:38;;;;;;;;;;;;;;;15.50;99.07;100826.31;5131789;27;19911;-57
2022/09/10 07:33:04;;;;;;;;;;;;;;;15.62;98.67;100839.56;5120364;27;19958;-56
2022/09/10 07:35:29;;;;;;;;;;;;;;;15.53;99.82;100834.97;5112571;28;19950;-56
2022/09/10 07:37:55;;;;;;;;;;;;;;;15.53;100.00;100829.63;5097699;28;19912;-56
2022/09/10 07:40:22;;;;;;;;;;;;;;;15.60;99.88;100825.44;5091244;28;19920;-56
2022/09/10 07:42:47;;;;;;;;;;;;;;;15.63;100.00;100822.47;5101043;27;19937;-57
2022/09/10 07:45:14;;;;;;;;;;;;;;;15.72;99.24;100828.09;5120352;27;20378;-56
2022/09/10 07:47:40;;;;;;;;;;;;;;;15.80;99.66;100826.44;5133168;27;20403;-56
2022/09/10 07:50:08;;;;;;;;;;;;;;;15.80;100.00;100822.94;5135779;27;19916;-56
2022/09/10 07:52:33;;;;;;;;;;;;;;;15.85;100.00;100826.91;5112304;28;19912;-56
2022/09/10 07:54:59;;;;;;;;;;;;;;;15.87;100.00;100832.13;5110300;27;20274;-56
2022/09/10 07:57:25;;;;;;;;;;;;;;;15.87;100.00;100832.97;5107217;28;20403;-57
2022/09/10 07:59:50;;;;;;;;;;;;;;;15.91;100.00;100833.56;5105714;27;19915;-56
2022/09/10 08:02:15;;;;;;;;;;;;;;;15.92;100.00;100837.13;5109195;27;19915;-57
2022/09/10 08:04:41;;;;;;;;;;;;;;;15.92;100.00;100845.16;5109906;27;19919;-56
2022/09/10 08:07:06;;;;;;;;;;;;;;;15.98;100.00;100842.78;5111393;27;19912;-56
2022/09/10 08:09:32;;;;;;;;;;;;;;;16.07;100.00;100843.84;5109123;27;19955;-56
2022/09/10 08:11:59;;;;;;;;;;;;;;;16.08;100.00;100849.06;5112619;27;20370;-56
2022/09/10 08:14:25;;;;;;;;;;;;;;;16.16;99.51;100850.25;5111943;27;19912;-57
2022/09/10 08:16:51;;;;;;;;;;;;;;;16.28;98.83;100849.19;5110011;28;19911;-56
2022/09/10 08:19:16;;;;;;;;;;;;;;;16.15;99.80;100861.94;5118905;27;19956;-56
2022/09/10 08:21:42;;;;;;;;;;;;;;;16.15;99.69;100862.81;5116121;27;19915;-57
2022/09/10 08:24:09;;;;;;;;;;;;;;;16.14;100.00;100863.78;5109179;27;19915;-56
2022/09/10 08:26:34;;;;;;;;;;;;;;;16.15;100.00;100867.31;5109106;27;19934;-56
2022/09/10 08:29:01;;;;;;;;;;;;;;;16.17;100.00;100878.78;5112774;28;20362;-56
2022/09/10 08:31:27;;;;;;;;;;;;;;;16.20;100.00;100881.19;5112917;28;19907;-56
2022/09/10 08:33:53;;;;;;;;;;;;;;;16.25;100.00;100865.53;5113023;28;19994;-57
2022/09/10 08:36:20;;;;;;;;;;;;;;;16.34;100.00;100881.69;5114253;27;19907;-56
2022/09/10 08:38:46;;;;;;;;;;;;;;;16.37;100.00;100885.09;5113032;28;19991;-56
2022/09/10 08:41:17;;;;;;;;;;;;;;;16.40;100.00;100891.06;5111957;28;20006;-56
2022/09/10 08:44:03;;;;;;;;;;;;;;;16.47;99.37;100894.91;5112441;28;19907;-56
2022/09/10 08:46:30;;;;;;;;;;;;;;;16.50;100.00;100894.66;5113410;28;19908;-56
2022/09/10 08:49:06;;;;;;;;;;;;;;;16.61;98.56;100899.06;5129072;27;19916;-56
2022/09/10 08:51:35;;;;;;;;;;;;;;;16.49;99.24;100905.50;5130309;27;19922;-57
2022/09/10 08:54:27;;;;;;;;;;;;;;;16.44;99.80;100905.94;5133449;27;20378;-56
2022/09/10 08:56:55;;;;;;;;;;;;;;;16.41;99.59;100900.78;5101364;27;19984;-56
2022/09/10 08:59:32;;;;;;;;;;;;;;;16.41;99.98;100908.00;5131081;27;20013;-56
2022/09/10 09:02:00;;;;;;;;;;;;;;;16.39;99.85;100905.47;5114223;27;19915;-56
2022/09/10 09:04:34;;;;;;;;;;;;;;;16.36;99.52;100911.09;5111138;28;20442;-56
2022/09/10 09:07:03;;;;;;;;;;;;;;;16.33;99.37;100906.00;5111658;28;20014;-56
2022/09/10 09:09:29;;;;;;;;;;;;;;;16.30;99.78;100912.47;5112672;28;19915;-56
2022/09/10 09:12:03;;;;;;;;;;;;;;;16.30;100.00;100920.53;5125640;27;19915;-56
2022/09/10 09:14:38;;;;;;;;;;;;;;;16.32;99.70;100913.22;5132338;27;19911;-56
2022/09/10 09:17:15;;;;;;;;;;;;;;;16.33;100.00;100916.72;5132941;27;19911;-56
2022/09/10 09:19:48;;;;;;;;;;;;;;;16.39;99.38;100916.19;5133001;27;19954;-56
2022/09/10 09:22:18;;;;;;;;;;;;;;;16.42;99.46;100923.16;5122894;27;19935;-56
2022/09/10 09:24:52;;;;;;;;;;;;;;;16.46;99.35;100917.34;5145510;27;19912;-57
2022/09/10 09:27:18;;;;;;;;;;;;;;;16.51;99.86;100916.97;5112556;28;19907;-56
2022/09/10 09:29:58;;;;;;;;;;;;;;;16.54;98.75;100917.56;5110425;28;20327;-56
2022/09/10 09:32:24;;;;;;;;;;;;;;;16.53;100.00;100926.59;5131201;28;19907;-56
2022/09/10 09:34:58;;;;;;;;;;;;;;;16.52;100.00;100924.88;5126343;27;20366;-56
2022/09/10 09:37:28;;;;;;;;;;;;;;;16.60;99.52;100921.53;5112286;28;19912;-56
2022/09/10 09:40:06;;;;;;;;;;;;;;;16.72;99.39;100924.97;5112223;28;19911;-56
2022/09/10 09:42:43;;;;;;;;;;;;;;;16.83;100.00;100926.78;5122714;28;19912;-56
2022/09/10 09:45:18;;;;;;;;;;;;;;;17.09;99.44;100924.44;5110744;28;19911;-56
2022/09/10 09:47:44;;;;;;;;;;;;;;;17.11;99.67;100927.84;5112159;28;19994;-57
2022/09/10 09:50:10;;;;;;;;;;;;;;;17.17;99.42;100929.97;5114284;28;19916;-56
2022/09/10 09:52:37;;;;;;;;;;;;;;;17.21;97.91;100923.34;5134344;27;19911;-56
2022/09/10 09:55:05;;;;;;;;;;;;;;;17.13;99.10;100928.56;5136714;27;20428;-56
2022/09/10 09:57:31;;;;;;;;;;;;;;;17.06;98.35;100920.22;5135569;27;19925;-56
2022/09/10 09:59:56;;;;;;;;;;;;;;;17.01;99.87;100923.28;5136149;27;20001;-56
2022/09/10 10:02:23;;;;;;;;;;;;;;;16.98;99.29;100920.03;5118365;27;20389;-56
2022/09/10 10:04:53;;;;;;;;;;;;;;;16.97;99.55;100916.50;5115894;28;20298;-56
2022/09/10 10:07:24;;;;;;;;;;;;;;;16.97;99.00;100918.31;5114792;28;19911;-56
2022/09/10 10:09:52;;;;;;;;;;;;;;;16.97;99.88;100918.31;5115848;28;19908;-56
2022/09/10 10:12:18;;;;;;;;;;;;;;;17.05;99.61;100925.69;5115546;27;19919;-56
2022/09/10 10:14:43;;;;;;;;;;;;;;;17.12;99.79;100930.41;5115247;28;20403;-56
2022/09/10 10:17:24;;;;;;;;;;;;;;;17.18;99.44;100931.69;5115885;28;20585;-56
2022/09/10 10:20:15;;;;;;;;;;;;;;;17.26;98.98;100950.66;5111650;27;19916;-56
2022/09/10 10:22:44;;;;;;;;;;;;;;;17.31;99.98;100945.72;5109826;27;19962;-56
2022/09/10 10:25:28;;;;;;;;;;;;;;;17.34;99.24;100933.84;5100882;28;19911;-56
2022/09/10 10:27:54;;;;;;;;;;;;;;;17.44;100.00;100940.06;5104400;27;20042;-57
2022/09/10 10:30:21;;;;;;;;;;;;;;;17.56;98.20;100952.44;5119799;27;19998;-56
2022/09/10 10:32:46;;;;;;;;;;;;;;;17.55;98.30;100941.78;5105458;27;19916;-56
2022/09/10 10:35:18;;;;;;;;;;;;;;;17.60;98.13;100934.16;5093673;27;19915;-57
2022/09/10 10:37:50;;;;;;;;;;;;;;;17.61;97.48;100949.31;5115640;27;19912;-57
2022/09/10 10:40:25;;;;;;;;;;;;;;;17.76;95.66;100955.97;5116924;27;19920;-56
2022/09/10 10:43:02;;;;;;;;;;;;;;;17.54;96.59;100940.94;5112028;27;20366;-56
2022/09/10 10:45:54;;;;;;;;;;;;;;;17.56;97.34;100952.44;5108100;27;19911;-56
2022/09/10 10:48:38;;;;;;;;;;;;;;;17.69;98.06;100954.84;5083493;27;20306;-56
2022/09/10 10:51:03;;;;;;;;;;;;;;;17.83;97.77;100957.16;5118608;27;19912;-56
2022/09/10 10:53:47;;;;;;;;;;;;;;;18.04;95.26;100962.38;5114272;28;19908;-56
2022/09/10 10:56:26;;;;;;;;;;;;;;;17.93;95.68;100957.16;5115208;27;20247;-57
2022/09/10 10:59:16;;;;;;;;;;;;;;;17.88;96.75;100962.97;5112924;27;20003;-57
2022/09/10 11:01:51;;;;;;;;;;;;;;;17.90;95.33;100963.66;5113902;27;20310;-57
2022/09/10 11:04:25;;;;;;;;;;;;;;;17.82;96.56;100962.66;5113746;28;19933;-57
2022/09/10 11:07:12;;;;;;;;;;;;;;;17.80;96.16;100951.22;5113779;28;19995;-56
2022/09/10 11:09:54;;;;;;;;;;;;;;;17.82;97.10;100955.44;5122444;27;19918;-56
2022/09/10 11:12:29;;;;;;;;;;;;;;;17.78;96.57;100945.09;5135575;27;19908;-56
2022/09/10 11:14:57;;;;;;;;;;;;;;;17.73;97.32;100953.56;5109111;27;19915;-56
2022/09/10 11:17:28;;;;;;;;;;;;;;;17.74;98.12;100957.97;5111048;27;19923;-56
2022/09/10 11:19:53;;;;;;;;;;;;;;;17.70;97.00;100964.59;5113968;28;20002;-56
2022/09/10 11:22:26;;;;;;;;;;;;;;;17.61;97.79;100966.28;5113566;27;19990;-56
2022/09/10 11:25:10;;;;;;;;;;;;;;;17.57;98.59;100958.66;5112909;27;19955;-56
2022/09/10 11:27:45;;;;;;;;;;;;;;;17.55;99.79;100953.41;5127618;27;20358;-56
2022/09/10 11:30:11;;;;;;;;;;;;;;;17.51;98.56;100956.53;5112564;28;19911;-56
2022/09/10 11:32:39;;;;;;;;;;;;;;;17.50;99.16;100963.75;5113118;27;19915;-56
2022/09/10 11:35:22;;;;;;;;;;;;;;;17.47;99.13;100959.50;5115480;27;19911;-56
2022/09/10 11:37:50;;;;;;;;;;;;;;;17.46;99.05;100963.16;5119418;27;19919;-56
2022/09/10 11:40:23;;;;;;;;;;;;;;;17.47;98.92;100972.06;5113255;28;19919;-56
2022/09/10 11:42:53;;;;;;;;;;;;;;;17.55;100.00;100979.44;5116040;27;19911;-56
2022/09/10 11:45:22;;;;;;;;;;;;;;;17.58;99.34;100974.63;5116542;27;19956;-56
2022/09/10 11:48:06;;;;;;;;;;;;;;;17.61;99.46;100970.81;5113642;28;19914;-56
2022/09/10 11:50:36;;;;;;;;;;;;;;;17.61;98.84;100981.59;5113412;28;19918;-56
2022/09/10 11:53:06;;;;;;;;;;;;;;;17.60;98.03;100983.44;5113515;28;20002;-56
2022/09/10 11:55:51;;;;;;;;;;;;;;;17.55;98.62;100990.22;5113104;27;20023;-56
2022/09/10 11:58:24;;;;;;;;;;;;;;;17.48;98.59;100981.84;5087521;27;19915;-56
2022/09/10 12:01:04;;;;;;;;;;;;;;;17.42;98.95;100975.19;5108311;27;20007;-56
2022/09/10 12:03:35;;;;;;;;;;;;;;;17.45;99.26;100974.06;5103899;27;20014;-56
2022/09/10 12:06:13;;;;;;;;;;;;;;;17.48;99.38;100979.16;5126606;27;19915;-56
2022/09/10 12:08:44;;;;;;;;;;;;;;;17.58;98.96;100973.78;5097027;28;20320;-55
2022/09/10 12:11:26;;;;;;;;;;;;;;;17.68;99.37;100977.34;5112983;28;19914;-56
2022/09/10 12:13:51;;;;;;;;;;;;;;;17.93;99.48;100979.53;5112471;27;20294;-56
2022/09/10 12:16:31;;;;;;;;;;;;;;;18.42;99.82;100992.97;5119415;27;19918;-56
2022/09/10 12:18:58;;;;;;;;;;;;;;;18.89;98.50;100992.19;5110933;27;19915;-57
2022/09/10 12:21:31;;;;;;;;;;;;;;;19.30;97.28;100998.94;5110333;27;19934;-57
2022/09/10 12:23:58;;;;;;;;;;;;;;;19.43;96.61;101002.13;5104805;27;19915;-56
2022/09/10 12:26:23;;;;;;;;;;;;;;;19.61;96.46;101004.00;5111060;28;20849;-55
2022/09/10 12:28:52;;;;;;;;;;;;;;;21.15;96.75;100998.22;5112697;27;19911;-56
2022/09/10 12:31:18;;;;;;;;;;;;;;;23.15;90.82;100996.19;5112514;27;19912;-56
2022/09/10 12:33:46;;;;;;;;;;;;;;;23.37;84.21;101001.84;5111386;27;19915;-56
2022/09/10 12:36:29;;;;;;;;;;;;;;;22.61;84.06;101001.38;5111070;27;20006;-57
2022/09/10 12:38:54;;;;;;;;;;;;;;;21.74;81.92;100993.69;5112693;27;20275;-56
2022/09/10 12:41:20;;;;;;;;;;;;;;;21.10;82.96;100997.84;5113089;28;19935;-56
2022/09/10 12:43:45;;;;;;;;;;;;;;;20.59;84.58;101000.44;5113316;27;19917;-56